createdAt,value
2022-11-12T00:00:50.433Z,33.50
2022-11-12T00:03:17.595Z,28.40
2022-11-12T00:05:45.396Z,29.13
2022-11-12T00:08:12.560Z,28.90
2022-11-12T00:10:39.728Z,26.00
2022-11-12T00:13:06.958Z,24.95
2022-11-12T00:15:34.198Z,26.50
2022-11-12T00:18:01.395Z,28.98
2022-11-12T00:20:28.568Z,21.70
2022-11-12T00:22:55.877Z,25.77
2022-11-12T00:25:23.047Z,29.42
2022-11-12T00:27:50.200Z,25.00
2022-11-12T00:30:17.500Z,29.27
2022-11-12T00:32:44.653Z,28.58
2022-11-12T00:35:13.963Z,25.30
2022-11-12T00:37:41.374Z,25.73
2022-11-12T00:40:09.152Z,30.65
2022-11-12T00:42:36.382Z,27.10
2022-11-12T00:45:03.683Z,25.80
2022-11-12T00:47:30.856Z,27.17
2022-11-12T00:49:58.017Z,27.35
2022-11-12T00:52:25.187Z,25.90
2022-11-12T00:54:52.377Z,29.27
2022-11-12T00:57:19.555Z,26.67
2022-11-12T00:59:46.716Z,26.30
2022-11-12T01:02:13.860Z,33.22
2022-11-12T01:04:40.995Z,32.47
2022-11-12T01:07:08.174Z,35.88
2022-11-12T01:09:35.377Z,29.10
2022-11-12T01:12:02.577Z,28.08
2022-11-12T01:14:29.755Z,31.38
2022-11-12T01:16:56.891Z,34.55
2022-11-12T01:19:24.064Z,34.47
2022-11-12T01:21:51.203Z,29.88
2022-11-12T01:24:18.371Z,27.88
2022-11-12T01:26:45.534Z,37.22
2022-11-12T01:29:12.667Z,28.20
2022-11-12T01:31:39.820Z,33.88
2022-11-12T01:34:08.121Z,25.23
2022-11-12T01:36:39.129Z,30.90
2022-11-12T01:39:08.026Z,29.00
2022-11-12T01:41:36.052Z,30.30
2022-11-12T01:44:09.468Z,34.03
2022-11-12T01:46:38.209Z,27.75
2022-11-12T01:49:07.052Z,28.10
2022-11-12T01:51:35.812Z,30.02
2022-11-12T01:54:04.821Z,26.42
2022-11-12T01:56:32.258Z,30.63
2022-11-12T01:59:05.208Z,28.27
2022-11-12T02:01:32.590Z,30.40
2022-11-12T02:03:59.797Z,26.70
2022-11-12T02:06:27.173Z,29.02
2022-11-12T02:08:54.428Z,28.90
2022-11-12T02:11:22.409Z,32.75
2022-11-12T02:14:05.072Z,30.83
2022-11-12T02:16:36.901Z,29.77
2022-11-12T02:19:05.015Z,31.67
2022-11-12T02:21:32.511Z,31.83
2022-11-12T02:24:00.682Z,33.00
2022-11-12T02:26:30.184Z,29.98
2022-11-12T02:28:57.373Z,26.92
2022-11-12T02:31:24.547Z,27.20
2022-11-12T02:33:51.752Z,28.15
2022-11-12T02:36:18.912Z,27.23
2022-11-12T02:38:46.173Z,27.65
2022-11-12T02:41:13.330Z,26.73
2022-11-12T02:43:41.236Z,30.15
2022-11-12T02:46:08.379Z,29.67
2022-11-12T02:48:35.525Z,27.60
2022-11-12T02:51:02.753Z,27.17
2022-11-12T02:53:30.003Z,24.23
2022-11-12T02:55:57.184Z,28.10
2022-11-12T02:58:24.621Z,23.77
2022-11-12T03:00:52.214Z,29.75
2022-11-12T03:03:19.410Z,29.23
2022-11-12T03:05:47.607Z,25.92
2022-11-12T03:08:14.805Z,28.77
2022-11-12T03:10:41.951Z,24.75
2022-11-12T03:13:09.132Z,26.88
2022-11-12T03:15:36.305Z,19.40
2022-11-12T03:18:03.680Z,28.48
2022-11-12T03:20:30.955Z,23.35
2022-11-12T03:22:58.136Z,26.58
2022-11-12T03:25:25.948Z,24.80
2022-11-12T03:28:03.821Z,21.52
2022-11-12T03:30:31.987Z,20.73
2022-11-12T03:32:59.200Z,22.23
2022-11-12T03:35:26.879Z,24.95
2022-11-12T03:37:54.060Z,27.92
2022-11-12T03:40:21.302Z,22.80
2022-11-12T03:42:49.277Z,20.48
2022-11-12T03:45:20.529Z,27.00
2022-11-12T03:47:52.212Z,21.02
2022-11-12T03:50:20.090Z,20.17
2022-11-12T03:52:48.028Z,26.40
2022-11-12T03:55:15.808Z,24.60
2022-11-12T03:57:43.604Z,23.90
2022-11-12T04:00:11.567Z,23.40
2022-11-12T04:02:38.739Z,20.27
2022-11-12T04:05:25.228Z,16.70
2022-11-12T04:08:36.391Z,20.77
2022-11-12T04:11:06.279Z,19.67
2022-11-12T04:13:33.798Z,23.38
2022-11-12T04:16:21.104Z,23.52
2022-11-12T04:19:08.071Z,28.85
2022-11-12T04:21:56.302Z,23.10
2022-11-12T04:24:49.499Z,20.20
2022-11-12T04:27:18.133Z,22.17
2022-11-12T04:30:04.432Z,21.67
2022-11-12T04:32:32.483Z,20.38
2022-11-12T04:34:59.999Z,21.52
2022-11-12T04:37:28.515Z,20.25
2022-11-12T04:39:55.832Z,19.08
2022-11-12T04:42:41.633Z,21.00
2022-11-12T04:45:10.691Z,22.92
2022-11-12T04:47:39.191Z,24.70
2022-11-12T04:50:07.859Z,25.17
2022-11-12T04:52:35.147Z,24.95
2022-11-12T04:55:02.364Z,24.45
2022-11-12T04:57:29.602Z,21.55
2022-11-12T04:59:56.764Z,22.45
2022-11-12T05:02:23.917Z,23.70
2022-11-12T05:04:51.121Z,24.55
2022-11-12T05:07:18.591Z,22.13
2022-11-12T05:09:45.939Z,23.60
2022-11-12T05:12:13.140Z,21.83
2022-11-12T05:14:40.350Z,26.58
2022-11-12T05:17:07.865Z,21.40
2022-11-12T05:19:35.314Z,21.58
2022-11-12T05:22:05.685Z,27.83
2022-11-12T05:24:41.930Z,24.00
2022-11-12T05:27:20.794Z,25.83
2022-11-12T05:29:47.934Z,25.92
2022-11-12T05:32:16.282Z,25.55
2022-11-12T05:34:43.501Z,24.98
2022-11-12T05:37:11.680Z,25.30
2022-11-12T05:39:39.115Z,27.50
2022-11-12T05:42:12.944Z,22.75
2022-11-12T05:44:40.877Z,29.58
2022-11-12T05:47:08.041Z,26.27
2022-11-12T05:49:35.218Z,25.38
2022-11-12T05:52:02.381Z,25.23
2022-11-12T05:54:29.545Z,29.08
2022-11-12T05:56:56.747Z,28.63
2022-11-12T05:59:24.507Z,23.30
2022-11-12T06:01:51.677Z,31.85
2022-11-12T06:04:18.898Z,30.25
2022-11-12T06:06:46.264Z,25.73
2022-11-12T06:09:13.532Z,28.15
2022-11-12T06:11:40.879Z,27.48
2022-11-12T06:14:08.051Z,33.38
2022-11-12T06:16:35.207Z,29.77
2022-11-12T06:19:02.522Z,30.85
2022-11-12T06:21:29.684Z,33.45
2022-11-12T06:23:58.655Z,35.05
2022-11-12T06:26:30.582Z,27.02
2022-11-12T06:28:57.800Z,27.75
2022-11-12T06:31:25.190Z,35.92
2022-11-12T06:33:52.406Z,26.45
2022-11-12T06:36:20.614Z,27.33
2022-11-12T06:38:47.880Z,32.92
2022-11-12T06:41:15.324Z,27.02
2022-11-12T06:43:42.587Z,40.60
2022-11-12T06:46:13.632Z,35.95
2022-11-12T06:48:41.278Z,31.17
2022-11-12T06:51:13.063Z,25.63
2022-11-12T06:53:40.288Z,24.08
2022-11-12T06:56:08.477Z,27.88
2022-11-12T06:58:35.856Z,27.20
2022-11-12T07:01:13.424Z,25.98
2022-11-12T07:03:41.913Z,24.25
2022-11-12T07:06:13.348Z,31.85
2022-11-12T07:08:40.828Z,30.73
2022-11-12T07:11:08.296Z,28.25
2022-11-12T07:13:36.143Z,28.45
2022-11-12T07:16:03.824Z,28.45
2022-11-12T07:18:31.727Z,28.70
2022-11-12T07:21:03.466Z,31.58
2022-11-12T07:23:31.359Z,29.48
2022-11-12T07:25:58.658Z,29.95
2022-11-12T07:28:26.385Z,26.20
2022-11-12T07:30:57.374Z,30.15
2022-11-12T07:33:24.645Z,29.25
2022-11-12T07:35:57.262Z,27.13
2022-11-12T07:38:24.644Z,34.10
2022-11-12T07:40:52.019Z,30.80
2022-11-12T07:43:19.207Z,32.58
2022-11-12T07:45:46.348Z,29.00
2022-11-12T07:48:13.517Z,41.53
2022-11-12T07:50:40.688Z,31.90
2022-11-12T07:53:07.870Z,38.35
2022-11-12T07:55:35.008Z,36.70
2022-11-12T07:58:02.171Z,34.47
2022-11-12T08:00:29.364Z,38.08
2022-11-12T08:02:59.728Z,32.05
2022-11-12T08:05:26.872Z,36.72
2022-11-12T08:07:56.961Z,37.60
2022-11-12T08:10:24.237Z,36.15
2022-11-12T08:12:51.393Z,38.25
2022-11-12T08:15:18.535Z,40.92
2022-11-12T08:17:45.708Z,47.78
2022-11-12T08:20:13.318Z,37.08
2022-11-12T08:22:45.001Z,36.40
2022-11-12T08:25:15.355Z,39.65
2022-11-12T08:27:42.820Z,35.58
2022-11-12T08:30:10.328Z,43.38
2022-11-12T08:32:37.463Z,42.92
2022-11-12T08:35:04.828Z,35.58
2022-11-12T08:37:31.966Z,33.65
2022-11-12T08:39:59.111Z,38.60
2022-11-12T08:42:26.264Z,31.45
2022-11-12T08:44:53.392Z,33.03
2022-11-12T08:47:20.546Z,30.30
2022-11-12T08:49:48.324Z,31.08
2022-11-12T08:52:15.573Z,28.92
2022-11-12T08:54:42.706Z,33.20
2022-11-12T08:57:09.865Z,26.25
2022-11-12T08:59:37.022Z,24.60
2022-11-12T09:02:04.195Z,25.77
2022-11-12T09:04:31.353Z,24.38
2022-11-12T09:06:58.553Z,18.10
2022-11-12T09:09:25.776Z,20.15
2022-11-12T09:11:52.927Z,19.98
2022-11-12T09:14:20.211Z,18.77
2022-11-12T09:16:47.388Z,19.25
2022-11-12T09:19:14.588Z,24.27
2022-11-12T09:21:41.735Z,17.45
2022-11-12T09:24:08.967Z,17.58
2022-11-12T09:26:36.136Z,16.75
2022-11-12T09:29:03.277Z,22.35
2022-11-12T09:31:30.484Z,20.05
2022-11-12T09:33:57.616Z,19.13
2022-11-12T09:36:24.767Z,20.65
2022-11-12T09:38:51.939Z,19.45
2022-11-12T09:41:39.324Z,16.98
2022-11-12T09:44:24.673Z,16.80
2022-11-12T09:46:54.706Z,13.85
2022-11-12T09:49:21.895Z,17.08
2022-11-12T09:51:51.626Z,17.33
2022-11-12T09:54:21.561Z,14.65
2022-11-12T09:56:49.664Z,18.58
2022-11-12T09:59:16.940Z,18.33
2022-11-12T10:01:59.317Z,13.45
2022-11-12T10:04:29.546Z,12.43
2022-11-12T10:07:06.848Z,13.68
2022-11-12T10:09:38.162Z,15.45
2022-11-12T10:12:29.672Z,16.48
2022-11-12T10:15:23.819Z,15.23
2022-11-12T10:17:52.846Z,15.85
2022-11-12T10:20:22.782Z,15.02
2022-11-12T10:22:59.058Z,14.80
2022-11-12T10:25:26.643Z,14.60
2022-11-12T10:27:55.436Z,15.57
2022-11-12T10:30:23.998Z,17.35
2022-11-12T10:32:51.780Z,15.95
2022-11-12T10:35:20.459Z,17.85
2022-11-12T10:38:05.140Z,17.83
2022-11-12T10:40:37.152Z,15.30
2022-11-12T10:43:21.056Z,16.52
2022-11-12T10:45:49.274Z,16.30
2022-11-12T10:48:27.352Z,13.30
2022-11-12T10:50:55.623Z,19.98
2022-11-12T10:53:36.134Z,15.15
2022-11-12T10:56:04.792Z,17.20
2022-11-12T10:58:31.995Z,18.42
2022-11-12T11:01:17.353Z,17.08
2022-11-12T11:03:58.099Z,21.25
2022-11-12T11:06:26.580Z,16.48
2022-11-12T11:08:55.054Z,20.13
2022-11-12T11:11:29.568Z,16.38
2022-11-12T11:13:57.879Z,19.93
2022-11-12T11:16:26.580Z,19.45
2022-11-12T11:18:55.905Z,19.55
2022-11-12T11:21:29.308Z,18.27
2022-11-12T11:24:15.328Z,21.98
2022-11-12T11:29:32.893Z,22.00
2022-11-12T11:32:20.255Z,26.00
2022-11-12T11:35:06.214Z,21.27
2022-11-12T11:37:36.920Z,22.10
2022-11-12T11:40:06.950Z,20.88
2022-11-12T11:42:42.287Z,23.05
2022-11-12T11:45:18.544Z,20.35
2022-11-12T11:48:01.622Z,22.45
2022-11-12T11:50:34.724Z,24.02
2022-11-12T11:53:01.898Z,19.70
2022-11-12T11:55:33.218Z,19.70
2022-11-12T11:58:12.601Z,18.67
2022-11-12T12:01:02.851Z,18.92
2022-11-12T12:03:48.485Z,21.40
2022-11-12T12:06:21.131Z,18.42
2022-11-12T12:08:51.431Z,22.85
2022-11-12T12:11:23.967Z,16.70
2022-11-12T12:14:17.147Z,18.65
2022-11-12T12:17:02.863Z,20.02
2022-11-12T12:19:33.152Z,16.80
2022-11-12T12:22:02.150Z,15.88
2022-11-12T12:24:50.816Z,18.83
2022-11-12T12:27:26.348Z,18.85
2022-11-12T12:29:56.577Z,16.08
2022-11-12T12:32:38.286Z,22.52
2022-11-12T12:35:16.812Z,16.42
2022-11-12T12:37:51.984Z,17.08
2022-11-12T12:40:42.273Z,21.77
2022-11-12T12:43:09.475Z,18.33
2022-11-12T12:45:42.389Z,17.38
2022-11-12T12:48:14.788Z,15.02
2022-11-12T12:50:43.114Z,16.25
2022-11-12T12:53:25.553Z,14.85
2022-11-12T12:55:53.441Z,19.55
2022-11-12T12:58:20.645Z,17.35
2022-11-12T13:00:53.086Z,16.30
2022-11-12T13:03:39.091Z,16.45
2022-11-12T13:06:07.396Z,15.23
2022-11-12T13:08:36.174Z,15.93
2022-11-12T13:11:03.452Z,13.43
2022-11-12T13:13:32.688Z,18.33
2022-11-12T13:16:00.826Z,14.63
2022-11-12T13:18:40.581Z,17.42
2022-11-12T13:21:07.749Z,13.82
2022-11-12T13:24:04.200Z,13.52
2022-11-12T13:26:40.291Z,15.07
2022-11-12T13:29:24.453Z,14.23
2022-11-12T13:32:11.607Z,14.13
2022-11-12T13:34:38.789Z,14.77
2022-11-12T13:37:06.725Z,14.55
2022-11-12T13:39:36.248Z,17.05
2022-11-12T13:42:28.574Z,16.05
2022-11-12T13:44:56.328Z,15.82
2022-11-12T13:47:26.184Z,18.73
2022-11-12T13:49:53.364Z,17.08
2022-11-12T13:52:20.573Z,16.90
2022-11-12T13:54:47.783Z,15.27
2022-11-12T13:57:20.795Z,17.95
2022-11-12T13:59:48.194Z,20.10
2022-11-12T14:02:21.042Z,15.77
2022-11-12T14:04:48.345Z,21.45
2022-11-12T14:07:27.748Z,19.67
2022-11-12T14:10:10.093Z,16.63
2022-11-12T14:12:52.265Z,16.30
2022-11-12T14:15:28.525Z,17.58
2022-11-12T14:18:15.654Z,17.40
2022-11-12T14:20:42.851Z,19.45
2022-11-12T14:23:12.708Z,15.63
2022-11-12T14:25:49.895Z,16.90
2022-11-12T14:28:28.389Z,17.60
2022-11-12T14:30:56.460Z,22.80
2022-11-12T14:33:26.740Z,19.88
2022-11-12T14:36:04.999Z,16.50
2022-11-12T14:38:40.215Z,19.80
2022-11-12T14:41:21.298Z,24.30
2022-11-12T14:43:55.005Z,16.20
2022-11-12T14:46:31.630Z,19.08
2022-11-12T14:48:58.760Z,19.35
2022-11-12T14:51:27.969Z,21.70
2022-11-12T14:54:00.837Z,19.45
2022-11-12T14:56:40.758Z,19.42
2022-11-12T14:59:08.173Z,18.20
2022-11-12T15:04:26.980Z,23.83
2022-11-12T15:06:58.480Z,23.52
2022-11-12T15:09:33.167Z,22.92
2022-11-12T15:12:00.493Z,19.83
2022-11-12T15:14:27.699Z,24.85
2022-11-12T15:16:54.913Z,22.92
2022-11-12T15:19:23.600Z,22.50
2022-11-12T15:21:58.399Z,24.20
2022-11-12T15:24:27.378Z,23.88
2022-11-12T15:26:55.281Z,24.73
2022-11-12T15:29:27.055Z,23.77
2022-11-12T15:32:02.264Z,29.30
2022-11-12T15:34:41.637Z,33.47
2022-11-12T15:37:11.833Z,34.15
2022-11-12T15:39:47.207Z,30.70
2022-11-12T15:44:41.529Z,34.53
2022-11-12T15:47:10.372Z,34.75
2022-11-12T15:49:47.068Z,32.75
2022-11-12T15:52:14.224Z,35.42
2022-11-12T15:54:41.449Z,35.28
2022-11-12T15:57:19.108Z,31.42
2022-11-12T15:59:46.670Z,33.55
2022-11-12T16:02:14.239Z,34.33
2022-11-12T16:04:41.931Z,31.73
2022-11-12T16:07:09.964Z,32.38
2022-11-12T16:09:38.992Z,29.75
2022-11-12T16:12:06.388Z,36.10
2022-11-12T16:14:33.588Z,38.40
2022-11-12T16:17:00.796Z,34.72
2022-11-12T16:19:27.953Z,35.47
2022-11-12T16:21:55.155Z,39.15
2022-11-12T16:24:22.292Z,37.83
2022-11-12T16:26:49.466Z,40.25
2022-11-12T16:29:16.680Z,38.70
2022-11-12T16:31:44.562Z,37.70
2022-11-12T16:34:12.290Z,37.35
2022-11-12T16:36:40.391Z,34.97
2022-11-12T16:39:07.583Z,38.05
2022-11-12T16:41:34.755Z,37.60
2022-11-12T16:44:01.904Z,32.03
2022-11-12T16:46:30.596Z,33.50
2022-11-12T16:48:58.443Z,34.45
2022-11-12T16:51:25.664Z,38.78
2022-11-12T16:53:52.852Z,32.72
2022-11-12T16:56:20.767Z,38.72
2022-11-12T16:58:48.617Z,34.83
2022-11-12T17:01:23.422Z,34.67
2022-11-12T17:03:51.199Z,39.20
2022-11-12T17:06:18.710Z,34.10
2022-11-12T17:08:47.999Z,38.20
2022-11-12T17:11:18.068Z,37.10
2022-11-12T17:13:45.251Z,35.70
2022-11-12T17:16:12.691Z,37.08
2022-11-12T17:18:40.256Z,33.40
2022-11-12T17:21:08.368Z,37.53
2022-11-12T17:23:35.492Z,35.75
2022-11-12T17:26:03.741Z,38.08
2022-11-12T17:28:31.129Z,38.22
2022-11-12T17:31:08.511Z,40.38
2022-11-12T17:33:46.280Z,42.55
2022-11-12T17:36:18.033Z,41.58
2022-11-12T17:38:45.399Z,35.38
2022-11-12T17:41:12.684Z,39.28
2022-11-12T17:43:40.210Z,35.83
2022-11-12T17:46:08.551Z,37.50
2022-11-12T17:48:36.464Z,34.28
2022-11-12T17:51:09.655Z,38.40
2022-11-12T17:53:36.981Z,32.15
2022-11-12T17:56:04.642Z,36.97
2022-11-12T17:58:32.264Z,35.03
2022-11-12T18:01:06.994Z,37.72
2022-11-12T18:03:34.226Z,33.53
2022-11-12T18:06:01.583Z,43.90
2022-11-12T18:08:28.775Z,40.25
2022-11-12T18:10:56.168Z,40.20
2022-11-12T18:13:23.332Z,42.53
2022-11-12T18:15:50.451Z,41.90
2022-11-12T18:18:18.685Z,41.15
2022-11-12T18:20:46.261Z,39.05
2022-11-12T18:23:13.455Z,45.70
2022-11-12T18:25:40.790Z,40.22
2022-11-12T18:28:08.434Z,45.78
2022-11-12T18:30:36.283Z,39.80
2022-11-12T18:33:03.429Z,38.40
2022-11-12T18:35:30.640Z,43.40
2022-11-12T18:37:57.830Z,44.25
2022-11-12T18:40:25.021Z,42.33
2022-11-12T18:42:52.199Z,37.72
2022-11-12T18:45:19.356Z,38.20
2022-11-12T18:47:46.565Z,39.47
2022-11-12T18:50:13.773Z,37.58
2022-11-12T18:52:40.940Z,38.30
2022-11-12T18:55:08.375Z,39.22
2022-11-12T18:57:35.623Z,36.15
2022-11-12T19:00:03.255Z,36.97
2022-11-12T19:02:30.428Z,35.10
2022-11-12T19:04:57.587Z,36.33
2022-11-12T19:07:24.735Z,38.05
2022-11-12T19:09:51.923Z,39.53
2022-11-12T19:12:19.168Z,34.50
2022-11-12T19:14:46.358Z,38.70
2022-11-12T19:17:13.566Z,35.85
2022-11-12T19:19:40.713Z,41.00
2022-11-12T19:22:07.854Z,38.42
2022-11-12T19:24:35.050Z,37.53
2022-11-12T19:27:02.248Z,36.70
2022-11-12T19:29:30.786Z,37.22
2022-11-12T19:31:57.928Z,42.38
2022-11-12T19:34:25.132Z,36.95
2022-11-12T19:37:11.924Z,35.95
2022-11-12T19:39:39.470Z,38.75
2022-11-12T19:42:08.975Z,40.85
2022-11-12T19:44:36.183Z,37.42
2022-11-12T19:47:03.355Z,35.58
2022-11-12T19:49:30.564Z,39.42
2022-11-12T19:51:57.708Z,38.17
2022-11-12T19:54:24.970Z,41.83
2022-11-12T19:56:52.248Z,35.17
2022-11-12T19:59:19.601Z,36.92
2022-11-12T20:01:46.797Z,36.00
2022-11-12T20:04:13.987Z,32.05
2022-11-12T20:06:41.177Z,41.63
2022-11-12T20:09:08.855Z,36.42
2022-11-12T20:11:36.032Z,40.63
2022-11-12T20:14:03.192Z,39.67
2022-11-12T20:16:30.403Z,45.90
2022-11-12T20:18:57.596Z,43.40
2022-11-12T20:21:25.234Z,46.70
2022-11-12T20:23:54.979Z,46.47
2022-11-12T20:26:22.192Z,44.97
2022-11-12T20:28:49.435Z,45.05
2022-11-12T20:31:20.447Z,41.55
2022-11-12T20:33:50.250Z,39.85
2022-11-12T20:36:21.256Z,42.70
2022-11-12T20:38:50.256Z,41.90
2022-11-12T20:41:19.116Z,40.42
2022-11-12T20:43:46.290Z,41.33
2022-11-12T20:46:13.979Z,44.40
2022-11-12T20:48:43.427Z,41.85
2022-11-12T20:51:28.392Z,42.00
2022-11-12T20:53:59.905Z,55.40
2022-11-12T20:56:28.686Z,49.15
2022-11-12T20:58:55.840Z,50.38
2022-11-12T21:01:23.980Z,56.03
2022-11-12T21:03:51.488Z,55.00
2022-11-12T21:06:19.767Z,58.45
2022-11-12T21:08:47.164Z,57.03
2022-11-12T21:11:15.882Z,57.08
2022-11-12T21:13:43.093Z,51.65
2022-11-12T21:16:10.919Z,50.60
2022-11-12T21:18:38.556Z,54.75
2022-11-12T21:21:06.953Z,51.33
2022-11-12T21:23:35.547Z,56.92
2022-11-12T21:26:13.342Z,53.97
2022-11-12T21:28:43.167Z,53.67
2022-11-12T21:31:14.866Z,54.78
2022-11-12T21:33:41.999Z,52.92
2022-11-12T21:36:14.852Z,48.42
2022-11-12T21:38:43.687Z,52.42
2022-11-12T21:41:12.140Z,52.03
2022-11-12T21:43:40.002Z,45.35
2022-11-12T21:46:08.437Z,48.33
2022-11-12T21:48:35.904Z,41.35
2022-11-12T21:51:06.233Z,46.90
2022-11-12T21:53:33.551Z,46.33
2022-11-12T21:56:11.072Z,47.83
2022-11-12T21:58:38.852Z,46.80
2022-11-12T22:01:16.080Z,47.13
2022-11-12T22:03:43.921Z,44.97
2022-11-12T22:06:11.296Z,45.88
2022-11-12T22:08:38.665Z,44.42
2022-11-12T22:11:09.800Z,46.08
2022-11-12T22:13:37.106Z,40.75
2022-11-12T22:16:07.483Z,46.22
2022-11-12T22:18:34.773Z,51.38
2022-11-12T22:21:03.397Z,50.38
2022-11-12T22:23:32.980Z,43.30
2022-11-12T22:26:00.507Z,47.45
2022-11-12T22:28:27.967Z,46.35
2022-11-12T22:30:55.298Z,46.58
2022-11-12T22:33:22.637Z,46.42
2022-11-12T22:35:49.777Z,47.67
2022-11-12T22:38:16.919Z,44.45
2022-11-12T22:40:44.076Z,45.28
2022-11-12T22:43:11.240Z,40.33
2022-11-12T22:45:38.391Z,41.92
2022-11-12T22:48:05.802Z,49.63
2022-11-12T22:50:32.978Z,45.20
2022-11-12T22:53:00.220Z,45.17
2022-11-12T22:55:27.476Z,40.78
2022-11-12T22:57:54.616Z,44.20
2022-11-12T23:00:28.846Z,44.25
2022-11-12T23:02:55.968Z,40.85
2022-11-12T23:05:23.269Z,42.92
2022-11-12T23:07:50.480Z,44.33
2022-11-12T23:10:17.687Z,44.28
2022-11-12T23:12:44.850Z,41.88
2022-11-12T23:15:11.994Z,44.05
2022-11-12T23:17:39.181Z,43.38
2022-11-12T23:20:06.564Z,43.58
2022-11-12T23:22:33.779Z,44.85
2022-11-12T23:25:00.940Z,44.83
2022-11-12T23:27:28.950Z,44.00
2022-11-12T23:29:56.126Z,43.28
2022-11-12T23:32:23.344Z,46.92
2022-11-12T23:34:50.532Z,50.83
2022-11-12T23:37:17.716Z,55.15
2022-11-12T23:39:44.872Z,48.85
2022-11-12T23:42:12.081Z,48.90
2022-11-12T23:44:39.496Z,51.88
2022-11-12T23:47:06.756Z,48.05
2022-11-12T23:49:33.886Z,53.00
2022-11-12T23:52:01.055Z,49.85
2022-11-12T23:54:28.198Z,48.45
2022-11-12T23:56:55.383Z,46.72
2022-11-12T23:59:22.516Z,50.22
